Time;durP1;ratioP1;P1;durP2;ratioP2;P2;SDS_P1;SDS_P2;PMS_P1;PMS_P2;Temp;Humidity;BMP_temperature;BMP_pressure;BME280_temperature;BME280_humidity;BME280_pressure;Samples;Min_cycle;Max_cycle;Signal;HPM_P1;HPM_P2
2020/12/16 03:08:00;;;;;;;457.43;178.07;;;;;;;-3.62;94.25;99498.37;4392803;79;22893;-86
2020/12/16 03:14:02;;;;;;;438.13;175.33;;;;;;;-3.54;94.01;99501.84;4327026;80;21191;-86
2020/12/16 03:20:05;;;;;;;337.73;149.23;;;;;;;-3.40;93.56;99500.77;4173279;83;21166;-86
2020/12/16 03:26:07;;;;;;;324.13;131.10;;;;;;;-3.25;93.23;99512.23;4153956;83;21174;-86
2020/12/16 03:32:20;;;;;;;309.43;130.60;;;;;;;-3.04;93.03;99507.61;4386573;79;23080;-86
2020/12/16 03:38:26;;;;;;;300.43;125.80;;;;;;;-3.00;92.80;99505.16;4270851;80;21378;-86
2020/12/16 03:44:29;;;;;;;295.40;129.10;;;;;;;-2.86;92.93;99515.55;4324362;81;21612;-86
2020/12/16 03:50:32;;;;;;;302.13;127.03;;;;;;;-2.82;92.51;99505.37;4326310;80;21715;-87
2020/12/16 03:56:34;;;;;;;293.50;123.23;;;;;;;-2.74;92.66;99502.09;4314821;80;21171;-87
2020/12/16 04:02:52;;;;;;;308.77;124.33;;;;;;;-2.59;92.46;99502.02;4457954;79;23027;-86
2020/12/16 04:08:56;;;;;;;310.43;131.53;;;;;;;-2.68;92.59;99500.20;4387723;80;22565;-86
2020/12/16 04:15:05;;;;;;;323.57;139.80;;;;;;;-2.57;92.92;99511.13;4379187;79;21361;-87
2020/12/16 04:21:09;;;;;;;306.23;131.90;;;;;;;-2.46;92.80;99513.45;4398830;79;21625;-87
2020/12/16 04:27:12;;;;;;;324.47;141.13;;;;;;;-2.37;92.63;99517.17;4389539;80;21149;-87
2020/12/16 04:33:14;;;;;;;338.40;140.93;;;;;;;-2.29;92.80;99528.65;4388343;80;21191;-86
2020/12/16 04:39:17;;;;;;;331.63;141.13;;;;;;;-2.18;92.72;99525.35;4397231;79;21153;-87
2020/12/16 04:45:19;;;;;;;318.70;140.30;;;;;;;-2.20;92.72;99521.61;4384178;80;21355;-86
2020/12/16 04:51:23;;;;;;;315.17;138.07;;;;;;;-2.13;92.67;99519.95;4381134;79;21176;-87
2020/12/16 04:57:25;;;;;;;298.13;131.40;;;;;;;-2.07;92.59;99529.00;4353991;80;21797;-86
2020/12/16 05:03:28;;;;;;;289.67;128.07;;;;;;;-2.06;92.48;99521.77;4288635;81;21350;-87
2020/12/16 05:09:38;;;;;;;281.10;124.40;;;;;;;-2.08;92.54;99532.77;4292970;81;21185;-86
2020/12/16 05:15:43;;;;;;;282.27;124.57;;;;;;;-2.13;92.17;99536.83;4267339;81;21184;-86
2020/12/16 05:21:44;;;;;;;260.07;119.87;;;;;;;-2.14;92.44;99543.28;4221243;82;21189;-86
2020/12/16 05:27:49;;;;;;;270.47;122.23;;;;;;;-2.21;92.36;99556.75;4185091;84;21383;-87
2020/12/16 05:33:52;;;;;;;262.93;115.92;;;;;;;-2.37;92.31;99568.11;4210590;84;21337;-86
2020/12/16 05:39:58;;;;;;;269.87;118.87;;;;;;;-2.41;92.06;99572.41;4202398;83;21174;-86
2020/12/16 05:45:59;;;;;;;238.40;109.15;;;;;;;-2.39;92.40;99568.92;4294384;81;21224;-87
2020/12/16 05:52:06;;;;;;;270.63;119.03;;;;;;;-2.48;91.55;99588.54;4293563;81;21135;-86
2020/12/16 05:58:10;;;;;;;267.53;116.83;;;;;;;-2.54;92.14;99580.27;4210151;83;21228;-86
2020/12/16 06:04:12;;;;;;;261.10;118.40;;;;;;;-2.62;91.37;99578.97;4213035;84;21181;-86
2020/12/16 06:10:15;;;;;;;282.77;125.97;;;;;;;-2.69;91.58;99589.72;4212493;82;21227;-87
2020/12/16 06:16:17;;;;;;;272.43;123.23;;;;;;;-2.86;91.75;99593.23;4216973;83;21588;-88
2020/12/16 06:22:22;;;;;;;248.27;109.50;;;;;;;-2.86;91.77;99596.73;4219963;83;21630;-85
2020/12/16 06:28:25;;;;;;;280.33;123.60;;;;;;;-2.99;91.34;99606.67;4198016;83;21643;-86
2020/12/16 06:34:27;;;;;;;267.77;118.70;;;;;;;-3.02;91.53;99607.22;4214106;83;21161;-85
2020/12/16 06:40:43;;;;;;;265.77;116.57;;;;;;;-3.07;91.49;99611.27;4225651;83;21186;-85
2020/12/16 06:46:48;;;;;;;218.05;96.02;;;;;;;-3.01;91.79;99610.70;4220749;83;21586;-86
2020/12/16 06:52:50;;;;;;;243.63;113.30;;;;;;;-3.00;91.80;99612.30;4222053;83;21210;-85
2020/12/16 06:58:51;;;;;;;272.30;122.30;;;;;;;-2.99;91.85;99625.42;4215832;82;21764;-85
2020/12/16 07:04:53;;;;;;;248.87;104.27;;;;;;;-3.04;91.99;99613.41;4255831;82;21190;-86
2020/12/16 07:10:55;;;;;;;264.03;111.17;;;;;;;-2.99;91.54;99620.63;4256681;82;21724;-85
2020/12/16 07:17:10;;;;;;;260.13;113.53;;;;;;;-3.13;91.26;99611.55;4300975;81;21627;-86
2020/12/16 07:23:14;;;;;;;239.10;109.83;;;;;;;-2.99;91.72;99616.61;4299312;81;21160;-86
2020/12/16 07:29:32;;;;;;;239.33;111.73;;;;;;;-2.91;91.94;99625.42;4293718;81;21181;-85
2020/12/16 07:35:39;;;;;;;249.13;111.37;;;;;;;-2.83;91.78;99626.18;4263235;82;21153;-85
2020/12/16 07:41:43;;;;;;;250.93;111.90;;;;;;;-2.77;91.69;99623.22;4254740;82;21656;-85
2020/12/16 07:47:44;;;;;;;286.80;120.40;;;;;;;-2.75;91.81;99624.28;4303626;81;21176;-86
2020/12/16 07:53:51;;;;;;;274.10;123.07;;;;;;;-2.52;92.49;99631.17;4241845;83;21605;-85
2020/12/16 07:59:52;;;;;;;269.67;118.67;;;;;;;-2.21;92.63;99630.51;4232136;83;21546;-85
2020/12/16 08:05:58;;;;;;;251.40;116.80;;;;;;;-1.90;92.64;99640.80;4290168;81;21214;-86
2020/12/16 08:12:00;;;;;;;240.80;111.97;;;;;;;-1.75;92.12;99650.08;4297161;81;21861;-86
2020/12/16 08:18:02;;;;;;;262.23;119.87;;;;;;;-1.71;92.40;99651.11;4299762;82;21313;-86
2020/12/16 08:24:05;;;;;;;263.40;128.00;;;;;;;-1.57;92.24;99658.55;4301322;81;21137;-86
2020/12/16 08:30:11;;;;;;;240.47;114.63;;;;;;;-1.35;92.59;99659.72;4292109;82;21187;-85
2020/12/16 08:36:22;;;;;;;260.50;122.27;;;;;;;-0.98;93.02;99659.92;4295129;81;21642;-86
2020/12/16 08:42:24;;;;;;;264.73;131.97;;;;;;;-0.70;92.72;99665.81;4297697;81;21173;-86
2020/12/16 08:48:26;;;;;;;272.00;135.53;;;;;;;-0.38;93.03;99667.34;4296889;81;21627;-87
2020/12/16 08:54:28;;;;;;;292.63;145.17;;;;;;;0.13;93.16;99673.40;4301653;81;21185;-86
2020/12/16 09:00:34;;;;;;;299.32;141.68;;;;;;;0.48;92.83;99678.29;4298165;81;21753;-87
2020/12/16 09:06:36;;;;;;;297.90;143.47;;;;;;;0.64;92.46;99693.95;4290515;81;21349;-86
2020/12/16 09:12:39;;;;;;;273.15;135.03;;;;;;;0.98;92.60;99696.35;4295708;81;21152;-86
2020/12/16 09:18:41;;;;;;;241.25;117.77;;;;;;;1.95;92.57;99709.11;4303075;81;21202;-86
2020/12/16 09:24:42;;;;;;;221.07;107.80;;;;;;;1.95;92.57;99709.11;4302015;81;21232;-86
2020/12/16 09:30:44;;;;;;;214.15;111.45;;;;;;;2.35;92.18;99710.97;4296494;81;21178;-86
2020/12/16 09:36:46;;;;;;;209.20;106.50;;;;;;;2.83;92.33;99712.83;4295270;81;21143;-87
2020/12/16 09:42:59;;;;;;;197.07;99.97;;;;;;;3.20;91.57;99714.33;4277510;81;21499;-87
2020/12/16 09:49:03;;;;;;;193.78;102.80;;;;;;;3.37;91.14;99707.66;4255128;82;21184;-88
2020/12/16 09:55:20;;;;;;;195.97;100.25;;;;;;;3.37;90.66;99711.72;4247410;82;21173;-87
2020/12/16 10:01:23;;;;;;;192.97;102.13;;;;;;;3.28;90.35;99708.18;4254047;82;21188;-87
2020/12/16 10:07:24;;;;;;;198.57;107.37;;;;;;;3.45;90.64;99719.64;4254543;82;21229;-87
2020/12/16 10:13:26;;;;;;;204.63;110.28;;;;;;;3.87;90.90;99718.48;4264819;82;21816;-87
2020/12/16 10:19:27;;;;;;;184.48;97.90;;;;;;;4.28;90.54;99718.93;4268656;82;21208;-88
2020/12/16 10:25:33;;;;;;;184.57;94.77;;;;;;;4.60;90.22;99721.77;4268803;82;21208;-88
2020/12/16 10:31:35;;;;;;;180.82;96.75;;;;;;;4.84;89.67;99721.53;4258358;82;21598;-88
2020/12/16 10:37:40;;;;;;;166.73;92.30;;;;;;;4.92;89.35;99723.22;4258151;82;21181;-89
2020/12/16 10:43:40;;;;;;;161.10;88.87;;;;;;;4.92;89.47;99710.43;4261442;82;21153;-88
2020/12/16 10:49:42;;;;;;;166.32;90.65;;;;;;;5.25;89.13;99709.34;4253616;82;21335;-88
2020/12/16 10:55:43;;;;;;;155.45;86.80;;;;;;;5.33;88.85;99714.77;4262873;82;21571;-87
2020/12/16 11:01:47;;;;;;;155.07;86.17;;;;;;;5.47;88.60;99705.06;4256905;82;21192;-88
2020/12/16 11:07:50;;;;;;;163.07;90.35;;;;;;;5.43;88.36;99702.22;4235694;82;21178;-88
2020/12/16 11:13:52;;;;;;;137.45;74.58;;;;;;;5.44;88.22;99699.73;4261455;82;21157;-88
2020/12/16 11:19:54;;;;;;;114.40;60.23;;;;;;;5.46;88.16;99688.55;4259220;82;21172;-88
2020/12/16 11:25:55;;;;;;;96.97;51.35;;;;;;;5.52;87.80;99689.95;4257697;82;21222;-88
2020/12/16 11:31:59;;;;;;;87.17;43.10;;;;;;;5.47;87.19;99687.41;4264568;82;21247;-88
2020/12/16 11:38:00;;;;;;;57.13;31.20;;;;;;;5.11;87.17;99690.54;4266268;82;21141;-88
2020/12/16 11:44:04;;;;;;;49.75;26.73;;;;;;;4.82;87.18;99680.35;4258976;82;21214;-88
2020/12/16 11:50:11;;;;;;;49.15;25.45;;;;;;;4.81;87.11;99681.48;4269856;82;21674;-87
2020/12/16 11:56:12;;;;;;;56.35;28.52;;;;;;;4.68;86.61;99668.88;4253200;82;21150;-87
2020/12/16 12:02:14;;;;;;;62.70;30.32;;;;;;;4.60;86.19;99671.61;4259384;82;21150;-87
2020/12/16 12:08:16;;;;;;;66.40;33.85;;;;;;;4.42;86.33;99678.92;4258891;82;21324;-87
2020/12/16 12:14:18;;;;;;;74.25;37.73;;;;;;;4.35;86.04;99679.16;4264663;82;21200;-87
2020/12/16 12:20:25;;;;;;;63.23;32.65;;;;;;;4.31;85.93;99679.00;4253785;82;21607;-87
2020/12/16 12:26:27;;;;;;;63.60;33.53;;;;;;;4.29;86.04;99677.73;4245574;82;21291;-87
2020/12/16 12:32:29;;;;;;;66.33;34.58;;;;;;;4.31;86.01;99684.41;4254393;82;21130;-87
2020/12/16 12:38:30;;;;;;;68.22;33.88;;;;;;;4.17;85.77;99678.33;4248202;82;21201;-87
2020/12/16 12:44:32;;;;;;;68.20;36.33;;;;;;;4.09;85.83;99678.30;4252672;82;21166;-87
2020/12/16 12:50:33;;;;;;;81.55;39.45;;;;;;;4.14;86.10;99682.23;4259293;82;21641;-87
2020/12/16 12:56:35;;;;;;;80.75;39.18;;;;;;;4.23;85.69;99677.06;4258118;82;21242;-87
2020/12/16 13:02:36;;;;;;;78.40;40.08;;;;;;;4.22;85.88;99676.84;4261558;82;21168;-87
2020/12/16 13:08:39;;;;;;;86.30;40.28;;;;;;;4.13;85.45;99676.03;4270987;82;21318;-86
2020/12/16 13:14:41;;;;;;;86.50;41.33;;;;;;;3.99;86.05;99663.72;4253404;82;21255;-87
2020/12/16 13:20:42;;;;;;;88.82;43.23;;;;;;;3.91;86.19;99669.91;4256605;82;21181;-87
2020/12/16 13:26:47;;;;;;;82.67;42.03;;;;;;;4.03;86.13;99670.09;4255185;82;21179;-87
2020/12/16 13:32:49;;;;;;;86.37;42.60;;;;;;;4.04;85.94;99674.41;4257769;82;21181;-87
2020/12/16 13:38:50;;;;;;;88.07;42.88;;;;;;;3.95;85.80;99678.44;4263601;82;21138;-88
2020/12/16 13:44:55;;;;;;;82.33;39.63;;;;;;;3.84;85.78;99679.03;4260431;82;21150;-88
2020/12/16 13:50:58;;;;;;;75.70;39.23;;;;;;;3.60;85.91;99658.34;4257712;82;21185;-87
2020/12/16 13:57:01;;;;;;;74.40;37.42;;;;;;;3.62;85.93;99671.80;4253125;82;21333;-87
2020/12/16 14:03:03;;;;;;;78.00;39.08;;;;;;;3.49;85.83;99680.03;4278329;82;21184;-87
2020/12/16 14:09:05;;;;;;;76.82;38.70;;;;;;;3.30;86.01;99687.57;4275489;82;21299;-87
2020/12/16 14:15:07;;;;;;;88.67;43.28;;;;;;;3.30;85.91;99687.57;4251440;82;21182;-87
2020/12/16 14:21:09;;;;;;;76.57;37.15;;;;;;;3.24;85.90;99685.56;4258632;82;21162;-87
2020/12/16 14:27:10;;;;;;;81.53;43.00;;;;;;;3.15;86.01;99691.45;4259488;82;21423;-87
2020/12/16 14:33:12;;;;;;;96.55;45.98;;;;;;;3.02;86.12;99697.19;4263942;82;21196;-88
2020/12/16 14:39:13;;;;;;;132.37;53.50;;;;;;;2.91;86.15;99702.59;4264796;82;21717;-86
2020/12/16 14:45:14;;;;;;;113.03;50.63;;;;;;;2.80;86.22;99699.89;4267327;82;21166;-87
2020/12/16 14:51:16;;;;;;;115.22;51.95;;;;;;;2.70;86.38;99693.39;4271269;82;21173;-87
2020/12/16 14:57:23;;;;;;;107.12;54.55;;;;;;;2.68;86.50;99698.30;4267777;82;21741;-88
2020/12/16 15:03:25;;;;;;;112.15;53.25;;;;;;;2.69;86.64;99700.45;4272550;82;21248;-88
2020/12/16 15:09:27;;;;;;;122.10;58.15;;;;;;;2.58;86.30;99702.59;4277080;82;21617;-87
2020/12/16 15:15:28;;;;;;;134.18;63.13;;;;;;;2.39;86.53;99705.19;4274861;82;21733;-87
2020/12/16 15:21:30;;;;;;;121.40;61.08;;;;;;;2.32;86.79;99706.95;4254469;82;21643;-87
2020/12/16 15:27:39;;;;;;;121.00;59.83;;;;;;;2.38;87.07;99698.98;4264454;82;21326;-87
2020/12/16 15:33:41;;;;;;;164.20;77.55;;;;;;;2.31;86.49;99708.61;4273404;82;21812;-86
2020/12/16 15:39:43;;;;;;;178.32;81.45;;;;;;;2.16;86.81;99696.22;4264498;82;21169;-87
2020/12/16 15:45:44;;;;;;;161.22;76.00;;;;;;;2.08;86.85;99701.55;4276562;82;21153;-87
2020/12/16 15:51:56;;;;;;;170.77;83.03;;;;;;;2.10;87.01;99711.51;4262545;82;21176;-86
2020/12/16 15:57:58;;;;;;;168.75;82.82;;;;;;;2.11;87.22;99712.56;4253076;82;21719;-87
2020/12/16 16:03:59;;;;;;;164.25;80.00;;;;;;;2.15;87.15;99727.05;4222268;82;22392;-88
2020/12/16 16:10:01;;;;;;;166.77;77.15;;;;;;;2.06;87.14;99715.90;4194477;82;21158;-88
2020/12/16 16:16:03;;;;;;;171.75;79.58;;;;;;;1.98;87.22;99724.70;4203975;82;21155;-86
2020/12/16 16:22:05;;;;;;;167.22;81.60;;;;;;;1.74;86.89;99730.87;4211993;82;21742;-87
2020/12/16 16:28:06;;;;;;;171.35;83.07;;;;;;;1.76;87.54;99728.11;4210149;82;21365;-87
2020/12/16 16:34:08;;;;;;;160.78;80.22;;;;;;;1.61;86.84;99735.16;4212145;82;21178;-87
2020/12/16 16:40:16;;;;;;;141.37;69.85;;;;;;;1.42;87.10;99729.84;4215887;82;21202;-86
2020/12/16 16:46:19;;;;;;;160.97;78.72;;;;;;;1.41;87.70;99741.70;4198898;82;21202;-87
2020/12/16 16:52:22;;;;;;;161.80;77.67;;;;;;;1.60;88.05;99747.03;4208607;82;21359;-87
2020/12/16 16:58:24;;;;;;;146.95;69.17;;;;;;;1.70;87.98;99754.14;4212014;82;21355;-87
2020/12/16 17:04:25;;;;;;;153.93;76.75;;;;;;;1.76;87.99;99754.30;4262270;82;21330;-87
2020/12/16 17:10:27;;;;;;;152.68;69.55;;;;;;;1.70;87.71;99753.60;4309063;82;21196;-87
2020/12/16 17:16:33;;;;;;;142.68;71.53;;;;;;;1.60;87.33;99755.94;4298860;82;21677;-87
2020/12/16 17:22:36;;;;;;;161.80;79.47;;;;;;;1.46;87.99;99757.81;4285280;82;21190;-86
2020/12/16 17:28:37;;;;;;;204.15;104.55;;;;;;;1.55;87.95;99756.59;4281244;82;21160;-87
2020/12/16 17:34:39;;;;;;;141.57;75.10;;;;;;;1.48;88.01;99757.52;4289618;82;21182;-87
2020/12/16 17:40:40;;;;;;;168.72;84.50;;;;;;;1.54;88.07;99767.11;4302637;82;21172;-87
2020/12/16 17:46:42;;;;;;;193.78;95.53;;;;;;;1.52;88.13;99778.74;4293173;82;21157;-87
2020/12/16 17:53:24;;;;;;;;;;;;;;;;;;;;;
2020/12/16 18:10:11;;;;;;;191.95;97.30;;;;;;;1.76;88.88;99798.83;4497954;77;23019;-86
2020/12/16 18:16:12;;;;;;;186.03;96.78;;;;;;;1.71;88.50;99799.73;4450355;78;21587;-87
2020/12/16 18:22:14;;;;;;;204.13;100.85;;;;;;;1.74;88.85;99801.05;4448118;78;21306;-88
2020/12/16 18:28:16;;;;;;;167.18;83.90;;;;;;;1.84;89.00;99811.11;4445371;78;21877;-88
2020/12/16 18:34:18;;;;;;;196.87;93.40;;;;;;;1.93;88.99;99808.53;4449411;78;21165;-89
2020/12/16 18:40:20;;;;;;;191.68;92.17;;;;;;;2.02;88.74;99808.86;4440535;78;21608;-87
2020/12/16 18:46:22;;;;;;;188.20;93.15;;;;;;;1.83;88.68;99804.12;4445698;78;21184;-88
2020/12/16 18:52:41;;;;;;;221.00;106.60;;;;;;;1.79;89.01;99804.45;4452781;78;21145;-87
2020/12/16 18:58:49;;;;;;;204.40;102.40;;;;;;;1.76;88.78;99815.84;4442293;78;21149;-88
2020/12/16 19:04:57;;;;;;;245.05;118.97;;;;;;;1.88;89.10;99820.77;4448846;78;21236;-87
2020/12/16 19:10:59;;;;;;;232.77;112.42;;;;;;;1.96;89.10;99835.72;4431467;78;21166;-89
2020/12/16 19:17:01;;;;;;;252.28;120.17;;;;;;;1.91;88.93;99836.38;4443341;78;21320;-88
2020/12/16 19:23:02;;;;;;;212.00;103.90;;;;;;;1.95;89.14;99840.87;4442762;78;21119;-88
2020/12/16 19:29:07;;;;;;;227.45;112.88;;;;;;;2.06;89.28;99834.19;4420310;78;21126;-89
2020/12/16 19:35:10;;;;;;;249.10;121.17;;;;;;;2.16;89.04;99833.20;4438412;79;21341;-89
2020/12/16 19:41:11;;;;;;;261.10;121.28;;;;;;;2.04;88.65;99831.52;4421008;78;21653;-89
2020/12/16 19:47:16;;;;;;;227.68;111.77;;;;;;;2.03;89.06;99839.38;4441267;78;21287;-89
2020/12/16 19:53:17;;;;;;;237.43;115.71;;;;;;;1.99;88.87;99839.16;4284292;78;10000051;-88
2020/12/16 19:59:19;;;;;;;232.20;112.00;;;;;;;2.03;89.08;99844.78;4441566;78;22606;-88
2020/12/16 20:05:21;;;;;;;237.48;113.50;;;;;;;2.22;89.46;99857.12;4407988;79;21332;-87
2020/12/16 20:11:24;;;;;;;247.50;116.55;;;;;;;2.25;89.06;99852.47;4406467;79;21735;-88
2020/12/16 20:17:26;;;;;;;230.75;107.65;;;;;;;2.19;89.12;99851.50;4405652;79;21224;-89
2020/12/16 20:23:29;;;;;;;215.37;105.65;;;;;;;2.11;88.94;99859.76;4405618;79;21190;-88
2020/12/16 20:29:31;;;;;;;216.73;109.40;;;;;;;2.02;89.00;99853.42;4408804;79;21219;-89
2020/12/16 20:35:33;;;;;;;219.68;109.12;;;;;;;1.97;89.05;99860.29;4409851;79;21232;-89
2020/12/16 20:41:36;;;;;;;229.00;108.27;;;;;;;1.89;89.30;99856.92;4408089;79;21614;-88
2020/12/16 21:01:45;;;;;;;217.43;110.72;;;;;;;2.05;89.52;99884.45;4408756;79;21173;-88
2020/12/16 21:07:49;;;;;;;207.72;106.32;;;;;;;2.00;89.16;99869.69;4409728;79;21199;-88
2020/12/16 21:13:50;;;;;;;238.15;118.45;;;;;;;1.97;89.59;99867.58;4409287;79;21286;-88
2020/12/16 21:19:52;;;;;;;227.43;119.25;;;;;;;2.05;89.66;99865.55;4405765;79;21189;-88
2020/12/16 21:25:53;;;;;;;244.87;124.15;;;;;;;2.06;89.61;99864.44;4413159;79;21154;-88
2020/12/16 21:31:55;;;;;;;255.80;131.32;;;;;;;2.22;89.66;99867.11;4404533;79;21169;-87
2020/12/16 21:37:56;;;;;;;246.10;124.50;;;;;;;2.13;89.30;99872.39;4409337;80;21124;-88
2020/12/16 21:43:57;;;;;;;230.27;120.00;;;;;;;2.11;89.29;99881.37;4422531;79;21153;-88
2020/12/16 21:49:59;;;;;;;245.07;126.78;;;;;;;1.90;89.27;99886.05;4410807;79;21230;-89
2020/12/16 21:56:12;;;;;;;257.12;130.90;;;;;;;1.92;89.95;99887.91;4412315;79;21167;-87
2020/12/16 22:02:13;;;;;;;239.00;125.55;;;;;;;2.07;89.88;99882.27;4415455;79;21130;-87
2020/12/16 22:08:15;;;;;;;264.90;133.80;;;;;;;2.13;89.60;99888.59;4410158;79;21166;-89
2020/12/16 22:14:17;;;;;;;272.52;137.30;;;;;;;2.12;89.36;99876.74;4413065;79;21199;-88
2020/12/16 22:20:18;;;;;;;262.15;131.63;;;;;;;2.11;89.49;99885.95;4423635;80;21158;-88
2020/12/16 22:26:20;;;;;;;295.75;146.37;;;;;;;2.03;89.80;99881.23;4421634;79;21769;-88
2020/12/16 22:32:25;;;;;;;290.87;143.55;;;;;;;2.05;89.59;99888.50;4408266;79;21156;-88
2020/12/16 22:38:27;;;;;;;276.05;143.78;;;;;;;2.01;89.80;99896.93;4417655;79;21161;-87
2020/12/16 22:44:28;;;;;;;270.85;139.45;;;;;;;2.01;89.55;99890.98;4420458;79;21668;-88
2020/12/16 22:50:30;;;;;;;274.82;142.13;;;;;;;2.00;89.92;99886.70;4424456;79;21165;-88
2020/12/16 22:56:31;;;;;;;268.85;138.60;;;;;;;2.03;89.95;99887.45;4424455;79;21185;-88
2020/12/16 23:02:35;;;;;;;284.95;142.57;;;;;;;2.07;90.09;99883.61;4415033;80;21154;-88
2020/12/16 23:08:45;;;;;;;230.85;121.13;;;;;;;2.17;90.26;99876.66;4399766;79;21672;-88
2020/12/16 23:14:46;;;;;;;250.65;129.20;;;;;;;2.12;89.71;99885.66;4412940;80;21146;-88
2020/12/16 23:20:47;;;;;;;245.73;131.03;;;;;;;1.98;89.91;99882.67;4415208;80;21191;-87
2020/12/16 23:26:49;;;;;;;271.30;138.43;;;;;;;1.92;89.89;99881.16;4425161;79;21178;-88
2020/12/16 23:32:53;;;;;;;329.27;162.47;;;;;;;2.00;90.13;99879.13;4412324;80;21134;-88
2020/12/16 23:38:54;;;;;;;316.93;159.35;;;;;;;2.09;90.30;99884.91;4422039;79;21167;-88
2020/12/16 23:44:56;;;;;;;266.95;139.32;;;;;;;2.05;89.90;99881.75;4421677;79;21195;-89
2020/12/16 23:50:58;;;;;;;305.57;149.95;;;;;;;2.04;90.16;99883.64;4420144;79;21153;-87
2020/12/16 23:57:00;;;;;;;277.57;143.62;;;;;;;2.23;90.58;99876.27;4417729;79;21641;-88
